Troy, OH (45373)

2:43 AM EST op 09 december 2016 (GMT -0500)
Rural | | Change Station

Hoogte 854 ft 40.01 °N, 84.21 °W | Updated 55 seconds ago

Merendeels bewolkt
Merendeels bewolkt
18.4 °F
Voelt als 18 °F
N
0.0
Wind Variabel Wind van west
Gusts 0.0 mijl/u

Vandaag
Hoog -- | Laag -- °F
--% Kans op neerslag
Gisteren
Hoog -- | Laag -- °F
Precip. -- inches
Druk 30.45 inches
Zicht 10.0 mijlen
Wolken Licht bewolkt 4000 ft
Gevoelstemperatuur 18 °F
Dauwpunt 13 °F
Vochtigheid 79%
Neerslag 0.00 inches
Dikte sneeuw Niet beschikbaar.
7:47 AM 5:11 PM
Wassende maan, 71% visible
METAR KDAY 090656Z 27014KT 10SM SCT040 M07/M11 A3040 RMK AO2 SLP309 T10721106
Druk 30.45 inches
Zicht 10.0 mijlen
Wolken Licht bewolkt 4000 ft
Gevoelstemperatuur 18 °F
Dauwpunt 13 °F
Vochtigheid 79%
Neerslag 0.00 inches
Dikte sneeuw Niet beschikbaar.
7:47 AM 5:11 PM
Wassende maan, 71% visible
METAR KDAY 090656Z 27014KT 10SM SCT040 M07/M11 A3040 RMK AO2 SLP309 T10721106

10-Day Weather Forecast

Almanac

Astronomie

Dec. 09, 2016 Opkomst Ondergang
Werkelijke tijd
Burgerlijke schemering
Nautische schemering
Astronomische schemering
Maan
Golflengte van het zichtbare licht
Daglengte
Tomorrow will be .
, % of the Moon is Illuminated

Extremen vandaag

State Highs State Lows

Community

WunderPhotos

Upload Photos

1,956,374 foto’s ge-upload!

WunderBlog® & News

Nearby

Luchtkwaliteit

  Luchtkwaliteit LK-index Verontreinigende stof
Not available.

Dikte sneeuw

Station Depth Geometrische hoogte

Aardbevingen

Stad Distance Mag. Time & Date
Minimum magnitude displayed is 2.5.

Watertemperatuur langs de kust

Plaats Temperatuur

Stations

Nabije weerstations

Locatie station Temp. Gevoelstemperatuur Dauwpunt Vochtigheid Wind Precip. Hoogte Geactualiseerd Type
                   

Watches & Warnings

There are currently no watches in effect.